createdAt,value
2023-05-01T00:01:21.902Z,6.17
2023-05-01T00:03:49.152Z,6.00
2023-05-01T00:06:16.235Z,6.00
2023-05-01T00:08:43.165Z,5.23
2023-05-01T00:11:11.458Z,5.30
2023-05-01T00:13:38.742Z,5.07
2023-05-01T00:16:10.574Z,5.20
2023-05-01T00:18:38.739Z,5.87
2023-05-01T00:21:05.933Z,5.20
2023-05-01T00:23:32.852Z,6.20
2023-05-01T00:26:04.346Z,5.33
2023-05-01T00:28:31.376Z,6.20
2023-05-01T00:31:00.546Z,6.27
2023-05-01T00:33:29.921Z,5.40
2023-05-01T00:35:56.874Z,4.93
2023-05-01T00:38:27.357Z,5.47
2023-05-01T00:40:54.221Z,5.33
2023-05-01T00:43:23.651Z,4.90
2023-05-01T00:45:52.725Z,6.07
2023-05-01T00:48:19.705Z,5.90
2023-05-01T00:50:47.756Z,5.20
2023-05-01T00:53:14.701Z,5.17
2023-05-01T00:55:43.217Z,5.10
2023-05-01T00:58:12.197Z,5.00
2023-05-01T01:00:39.293Z,5.80
2023-05-01T01:03:08.916Z,5.27
2023-05-01T01:05:48.459Z,5.10
2023-05-01T01:08:32.528Z,5.50
2023-05-01T01:11:25.386Z,5.10
2023-05-01T01:14:07.503Z,7.03
2023-05-01T01:16:52.741Z,4.63
2023-05-01T01:19:57.054Z,5.60
2023-05-01T01:22:27.758Z,5.03
2023-05-01T01:25:38.999Z,5.50
2023-05-01T01:28:29.279Z,5.50
2023-05-01T01:31:21.147Z,5.00
2023-05-01T01:33:54.523Z,4.50
2023-05-01T01:36:53.624Z,4.60
2023-05-01T01:40:11.764Z,5.77
2023-05-01T01:42:53.132Z,5.10
2023-05-01T01:45:25.252Z,5.33
2023-05-01T01:47:59.752Z,5.23
2023-05-01T01:50:28.640Z,4.73
2023-05-01T01:53:01.038Z,5.83
2023-05-01T01:55:33.378Z,4.63
2023-05-01T01:58:03.273Z,5.07
2023-05-01T02:00:31.078Z,5.10
2023-05-01T02:03:00.933Z,5.40
2023-05-01T02:05:28.870Z,5.30
2023-05-01T02:07:58.004Z,5.07
2023-05-01T02:10:27.122Z,4.97
2023-05-01T02:12:56.927Z,5.40
2023-05-01T02:15:26.106Z,5.50
2023-05-01T02:17:54.039Z,5.17
2023-05-01T02:20:24.485Z,5.27
2023-05-01T02:22:53.782Z,5.17
2023-05-01T02:25:23.321Z,5.20
2023-05-01T02:27:57.868Z,4.63
2023-05-01T02:30:26.947Z,5.23
2023-05-01T02:32:59.049Z,5.57
2023-05-01T02:35:26.297Z,5.10
2023-05-01T02:37:53.244Z,5.37
2023-05-01T02:40:20.254Z,5.70
2023-05-01T02:42:49.901Z,5.13
2023-05-01T02:45:22.795Z,4.33
2023-05-01T02:47:54.524Z,5.10
2023-05-01T02:50:22.284Z,5.80
2023-05-01T02:52:49.998Z,5.23
2023-05-01T02:55:18.288Z,4.40
2023-05-01T02:57:45.130Z,5.00
2023-05-01T03:00:13.902Z,5.60
2023-05-01T03:02:41.388Z,4.60
2023-05-01T03:05:08.949Z,5.47
2023-05-01T03:07:35.944Z,4.60
2023-05-01T03:10:07.802Z,5.30
2023-05-01T03:12:34.735Z,5.50
2023-05-01T03:15:01.896Z,6.10
2023-05-01T03:17:31.124Z,5.73
2023-05-01T03:20:00.523Z,5.10
2023-05-01T03:22:33.049Z,5.07
2023-05-01T03:25:04.331Z,4.53
2023-05-01T03:27:31.369Z,5.90
2023-05-01T03:29:58.390Z,5.27
2023-05-01T03:32:25.732Z,5.57
2023-05-01T03:34:52.963Z,5.77
2023-05-01T03:37:19.860Z,5.10
2023-05-01T03:39:46.910Z,5.70
2023-05-01T03:42:13.777Z,4.70
2023-05-01T03:44:40.706Z,5.10
2023-05-01T03:47:10.793Z,5.40
2023-05-01T03:49:37.679Z,5.80
2023-05-01T03:52:07.066Z,4.80
2023-05-01T03:54:33.880Z,5.77
2023-05-01T03:57:00.890Z,5.23
2023-05-01T03:59:30.834Z,5.33
2023-05-01T04:01:57.737Z,5.80
2023-05-01T04:04:24.610Z,5.33
2023-05-01T04:06:51.987Z,5.30
2023-05-01T04:09:21.436Z,5.53
2023-05-01T04:11:48.483Z,6.47
2023-05-01T04:14:15.313Z,6.00
2023-05-01T04:16:44.620Z,5.73
2023-05-01T04:19:14.444Z,5.43
2023-05-01T04:21:41.401Z,4.97
2023-05-01T04:24:10.422Z,5.50
2023-05-01T04:26:37.308Z,5.60
2023-05-01T04:29:04.744Z,6.30
2023-05-01T04:31:31.658Z,5.60
2023-05-01T04:33:58.692Z,5.07
2023-05-01T04:36:32.901Z,5.13
2023-05-01T04:39:04.459Z,5.40
2023-05-01T04:41:33.370Z,5.43
2023-05-01T04:44:00.286Z,5.93
2023-05-01T04:46:27.194Z,4.77
2023-05-01T04:48:54.130Z,5.50
2023-05-01T04:51:21.500Z,5.27
2023-05-01T04:53:51.514Z,6.27
2023-05-01T04:56:18.414Z,4.80
2023-05-01T04:58:47.458Z,5.03
2023-05-01T05:01:14.347Z,4.60
2023-05-01T05:03:43.898Z,5.10
2023-05-01T05:06:11.634Z,5.30
2023-05-01T05:08:40.707Z,4.90
2023-05-01T05:11:07.687Z,4.83
2023-05-01T05:13:34.620Z,5.97
2023-05-01T05:16:04.626Z,4.80
2023-05-01T05:18:31.633Z,5.27
2023-05-01T05:20:58.574Z,5.17
2023-05-01T05:23:25.652Z,4.63
2023-05-01T05:25:52.521Z,4.93
2023-05-01T05:28:19.396Z,5.00
2023-05-01T05:30:49.092Z,4.77
2023-05-01T05:33:15.994Z,4.57
2023-05-01T05:35:45.220Z,5.17
2023-05-01T05:38:12.224Z,4.60
2023-05-01T05:40:39.129Z,5.03
2023-05-01T05:43:05.980Z,4.43
2023-05-01T05:45:36.074Z,4.87
2023-05-01T05:48:04.152Z,4.60
2023-05-01T05:50:36.063Z,4.07
2023-05-01T05:53:02.961Z,4.90
2023-05-01T05:55:30.005Z,4.63
2023-05-01T05:57:57.033Z,4.93
2023-05-01T06:00:24.006Z,4.10
2023-05-01T06:02:53.454Z,4.30
2023-05-01T06:05:22.893Z,5.70
2023-05-01T06:07:49.817Z,4.07
2023-05-01T06:10:17.635Z,4.40
2023-05-01T06:12:50.861Z,4.33
2023-05-01T06:15:25.841Z,4.33
2023-05-01T06:17:53.186Z,4.30
2023-05-01T06:20:20.158Z,4.63
2023-05-01T06:22:47.503Z,4.67
2023-05-01T06:25:14.900Z,5.10
2023-05-01T06:27:42.083Z,4.70
2023-05-01T06:30:12.183Z,4.50
2023-05-01T06:32:39.152Z,4.77
2023-05-01T06:35:08.901Z,4.63
2023-05-01T06:37:36.372Z,4.93
2023-05-01T06:40:05.974Z,4.27
2023-05-01T06:42:32.833Z,4.80
2023-05-01T06:44:59.802Z,4.53
2023-05-01T06:47:31.323Z,4.97
2023-05-01T06:50:05.323Z,4.43
2023-05-01T06:52:37.673Z,4.20
2023-05-01T06:55:04.852Z,4.80
2023-05-01T06:57:31.785Z,4.87
2023-05-01T06:59:58.881Z,4.50
2023-05-01T07:02:26.167Z,4.70
2023-05-01T07:04:55.386Z,3.80
2023-05-01T07:07:23.322Z,3.80
2023-05-01T07:09:52.657Z,3.63
2023-05-01T07:12:19.465Z,4.03
2023-05-01T07:14:46.453Z,4.23
2023-05-01T07:17:13.291Z,4.50
2023-05-01T07:19:42.597Z,4.47
2023-05-01T07:22:09.446Z,4.37
2023-05-01T07:24:43.408Z,4.63
2023-05-01T07:27:10.348Z,4.40
2023-05-01T07:29:39.984Z,4.30
2023-05-01T07:32:09.000Z,4.37
2023-05-01T07:34:36.101Z,4.47
2023-05-01T07:37:04.811Z,4.30
2023-05-01T07:39:31.881Z,4.53
2023-05-01T07:41:58.720Z,4.00
2023-05-01T07:44:27.900Z,3.90
2023-05-01T07:46:54.822Z,3.93
2023-05-01T07:49:24.958Z,4.10
2023-05-01T07:51:52.419Z,3.87
2023-05-01T07:54:22.112Z,4.80
2023-05-01T07:56:51.253Z,3.70
2023-05-01T07:59:18.172Z,3.73
2023-05-01T08:01:45.130Z,4.50
2023-05-01T08:04:12.149Z,3.97
2023-05-01T08:06:39.427Z,4.27
2023-05-01T08:09:08.618Z,3.90
2023-05-01T08:11:38.114Z,4.33
2023-05-01T08:14:04.962Z,3.43
2023-05-01T08:16:31.914Z,3.80
2023-05-01T08:18:59.132Z,4.10
2023-05-01T08:21:26.509Z,3.80
2023-05-01T08:23:56.672Z,4.30
2023-05-01T08:26:23.665Z,3.90
2023-05-01T08:28:50.894Z,3.93
2023-05-01T08:31:19.444Z,3.80
2023-05-01T08:33:51.909Z,3.70
2023-05-01T08:36:20.684Z,3.53
2023-05-01T08:38:48.504Z,3.47
2023-05-01T08:41:22.875Z,3.10
2023-05-01T08:43:50.378Z,3.10
2023-05-01T08:46:41.291Z,3.20
2023-05-01T08:49:11.505Z,3.27
2023-05-01T08:51:39.618Z,2.87
2023-05-01T08:54:08.288Z,3.00
2023-05-01T08:56:39.840Z,2.80
2023-05-01T08:59:11.753Z,2.93
2023-05-01T09:01:43.127Z,3.27
2023-05-01T09:04:12.001Z,3.40
2023-05-01T09:06:39.348Z,2.97
2023-05-01T09:09:06.664Z,3.70
2023-05-01T09:11:33.722Z,3.13
2023-05-01T09:14:01.814Z,3.40
2023-05-01T09:16:30.502Z,2.80
2023-05-01T09:18:59.375Z,3.40
2023-05-01T09:21:31.997Z,3.60
2023-05-01T09:24:02.683Z,4.67
2023-05-01T09:26:29.614Z,4.20
2023-05-01T09:28:58.307Z,3.77
2023-05-01T09:31:37.125Z,4.20
2023-05-01T09:34:05.993Z,3.93
2023-05-01T09:36:37.475Z,4.77
2023-05-01T09:39:06.931Z,4.37
2023-05-01T09:41:33.919Z,3.93
2023-05-01T09:44:01.572Z,4.30
2023-05-01T09:46:28.645Z,4.87
2023-05-01T09:49:00.838Z,4.27
2023-05-01T09:51:35.096Z,4.20
2023-05-01T09:54:05.240Z,4.63
2023-05-01T09:56:47.417Z,4.57
2023-05-01T09:59:21.389Z,4.53
2023-05-01T10:01:50.308Z,5.10
2023-05-01T10:04:20.349Z,4.70
2023-05-01T10:06:47.622Z,4.90
2023-05-01T10:09:28.505Z,5.30
2023-05-01T10:11:57.944Z,5.00
2023-05-01T10:14:26.984Z,4.50
2023-05-01T10:16:54.292Z,5.07
2023-05-01T10:19:26.255Z,4.70
2023-05-01T10:21:56.110Z,4.23
2023-05-01T10:24:23.262Z,4.80
2023-05-01T10:26:51.343Z,4.10
2023-05-01T10:29:21.178Z,4.70
2023-05-01T10:31:48.393Z,5.00
2023-05-01T10:34:21.702Z,5.37
2023-05-01T10:36:59.602Z,4.00
2023-05-01T10:39:39.540Z,4.27
2023-05-01T10:42:14.364Z,4.10
2023-05-01T10:44:42.929Z,4.37
2023-05-01T10:47:28.243Z,3.90
2023-05-01T10:50:15.948Z,5.10
2023-05-01T10:53:17.580Z,4.40
2023-05-01T10:55:51.799Z,4.10
2023-05-01T10:58:37.244Z,4.00
2023-05-01T11:01:30.754Z,4.10
2023-05-01T11:04:00.323Z,4.60
2023-05-01T11:06:27.976Z,4.20
2023-05-01T11:08:55.468Z,4.57
2023-05-01T11:11:22.911Z,5.70
2023-05-01T11:14:05.825Z,3.90
2023-05-01T11:16:46.088Z,4.83
2023-05-01T11:19:38.960Z,4.07
2023-05-01T11:22:15.497Z,4.60
2023-05-01T11:24:43.263Z,4.20
2023-05-01T11:27:16.150Z,4.67
2023-05-01T11:29:48.559Z,4.87
2023-05-01T11:32:19.855Z,4.30
2023-05-01T11:34:49.772Z,4.63
2023-05-01T11:37:19.206Z,3.73
2023-05-01T11:39:53.736Z,4.40
2023-05-01T11:42:26.316Z,4.37
2023-05-01T11:45:12.607Z,5.13
2023-05-01T11:47:40.535Z,4.20
2023-05-01T11:50:10.305Z,4.03
2023-05-01T11:52:54.635Z,4.00
2023-05-01T11:55:31.320Z,4.00
2023-05-01T11:57:59.368Z,3.83
2023-05-01T12:00:41.644Z,4.70
2023-05-01T12:03:14.757Z,3.80
2023-05-01T12:05:45.051Z,4.80
2023-05-01T12:08:23.480Z,4.20
2023-05-01T12:10:57.658Z,4.17
2023-05-01T12:13:26.964Z,3.63
2023-05-01T12:16:04.433Z,3.83
2023-05-01T12:18:31.818Z,4.63
2023-05-01T12:21:02.328Z,4.03
2023-05-01T12:23:36.030Z,4.27
2023-05-01T12:26:28.728Z,3.67
2023-05-01T12:29:01.501Z,4.27
2023-05-01T12:31:31.957Z,3.37
2023-05-01T12:34:00.124Z,3.57
2023-05-01T12:36:33.392Z,3.80
2023-05-01T12:39:09.039Z,3.63
2023-05-01T12:41:40.262Z,3.53
2023-05-01T12:44:30.830Z,3.70
2023-05-01T12:47:09.107Z,3.93
2023-05-01T12:49:38.785Z,3.60
2023-05-01T12:52:08.982Z,3.57
2023-05-01T12:54:38.830Z,3.40
2023-05-01T12:57:08.025Z,3.70
2023-05-01T12:59:44.553Z,3.30
2023-05-01T13:02:17.680Z,4.10
2023-05-01T13:04:49.359Z,3.20
2023-05-01T13:07:20.285Z,3.70
2023-05-01T13:09:59.185Z,3.80
2023-05-01T13:12:28.136Z,3.57
2023-05-01T13:14:58.940Z,3.50
2023-05-01T13:17:33.576Z,3.30
2023-05-01T13:20:04.048Z,3.80
2023-05-01T13:22:41.593Z,4.10
2023-05-01T13:25:17.307Z,3.83
2023-05-01T13:27:54.019Z,4.03
2023-05-01T13:30:32.178Z,4.43
2023-05-01T13:32:59.500Z,4.20
2023-05-01T13:35:29.687Z,4.60
2023-05-01T13:37:56.917Z,4.30
2023-05-01T13:40:26.226Z,3.90
2023-05-01T13:42:54.076Z,4.13
2023-05-01T13:45:21.386Z,4.73
2023-05-01T13:47:51.598Z,3.73
2023-05-01T13:50:18.853Z,5.07
2023-05-01T13:52:46.274Z,4.10
2023-05-01T13:55:14.485Z,4.03
2023-05-01T13:57:43.238Z,4.40
2023-05-01T14:00:19.399Z,4.10
2023-05-01T14:02:53.486Z,3.90
2023-05-01T14:05:29.183Z,4.17
2023-05-01T14:08:03.278Z,4.20
2023-05-01T14:10:33.697Z,3.20
2023-05-01T14:13:01.169Z,3.47
2023-05-01T14:15:31.574Z,3.60
2023-05-01T14:18:01.043Z,3.60
2023-05-01T14:20:28.124Z,3.73
2023-05-01T14:22:55.020Z,2.60
2023-05-01T14:25:34.798Z,2.17
2023-05-01T14:28:08.036Z,2.03
2023-05-01T14:30:38.296Z,1.90
2023-05-01T14:33:13.522Z,2.30
2023-05-01T14:35:50.950Z,2.20
2023-05-01T14:38:38.628Z,1.60
2023-05-01T14:41:11.339Z,1.93
2023-05-01T14:43:44.378Z,2.10
2023-05-01T14:46:34.841Z,2.00
2023-05-01T14:49:04.381Z,2.63
2023-05-01T14:51:33.619Z,2.17
2023-05-01T14:54:00.694Z,1.63
2023-05-01T14:56:29.906Z,1.90
2023-05-01T14:59:01.014Z,2.00
2023-05-01T15:01:28.029Z,2.10
2023-05-01T15:03:59.832Z,1.60
2023-05-01T15:06:33.183Z,2.33
2023-05-01T15:09:01.053Z,2.13
2023-05-01T15:11:30.635Z,1.67
2023-05-01T15:13:57.733Z,1.50
2023-05-01T15:16:27.681Z,1.70
2023-05-01T15:18:57.391Z,1.60
2023-05-01T15:21:24.530Z,1.37
2023-05-01T15:23:52.256Z,1.67
2023-05-01T15:26:19.299Z,1.60
2023-05-01T15:28:46.549Z,1.60
2023-05-01T15:31:19.259Z,1.40
2023-05-01T15:33:46.731Z,1.40
2023-05-01T15:36:18.909Z,1.67
2023-05-01T15:38:47.678Z,1.43
2023-05-01T15:41:16.347Z,1.77
2023-05-01T15:43:49.856Z,1.77
2023-05-01T15:46:18.303Z,1.90
2023-05-01T15:48:47.751Z,1.63
2023-05-01T15:51:15.919Z,2.30
2023-05-01T15:53:42.980Z,1.90
2023-05-01T15:56:10.438Z,1.90
2023-05-01T15:58:39.827Z,1.83
2023-05-01T16:01:07.793Z,1.77
2023-05-01T16:03:35.162Z,1.60
2023-05-01T16:06:05.187Z,2.10
2023-05-01T16:08:33.472Z,1.83
2023-05-01T16:11:04.228Z,1.90
2023-05-01T16:13:31.484Z,2.20
2023-05-01T16:16:02.197Z,2.03
2023-05-01T16:18:29.414Z,2.10
2023-05-01T16:20:58.765Z,2.23
2023-05-01T16:23:30.241Z,2.40
2023-05-01T16:25:58.175Z,2.27
2023-05-01T16:28:27.817Z,2.10
2023-05-01T16:30:55.615Z,2.07
2023-05-01T16:33:23.611Z,2.13
2023-05-01T16:35:59.508Z,1.77
2023-05-01T16:38:29.143Z,2.90
2023-05-01T16:40:56.212Z,2.90
2023-05-01T16:43:25.914Z,3.30
2023-05-01T16:45:54.557Z,3.73
2023-05-01T16:48:24.712Z,2.40
2023-05-01T16:50:52.233Z,2.87
2023-05-01T16:53:19.285Z,2.80
2023-05-01T16:55:46.590Z,2.57
2023-05-01T16:58:16.247Z,2.60
2023-05-01T17:00:43.854Z,2.00
2023-05-01T17:03:10.921Z,3.10
2023-05-01T17:05:38.137Z,2.60
2023-05-01T17:08:07.746Z,2.20
2023-05-01T17:10:35.156Z,3.20
2023-05-01T17:13:02.404Z,7.00
2023-05-01T17:15:29.730Z,3.57
2023-05-01T17:17:57.044Z,3.80
2023-05-01T17:20:23.963Z,2.70
2023-05-01T17:22:51.043Z,2.80
2023-05-01T17:25:18.300Z,2.83
2023-05-01T17:27:45.651Z,2.20
2023-05-01T17:30:13.877Z,2.33
2023-05-01T17:32:41.333Z,2.33
2023-05-01T17:35:09.093Z,2.20
2023-05-01T17:37:42.463Z,2.40
2023-05-01T17:40:12.366Z,2.10
2023-05-01T17:42:40.191Z,1.93
2023-05-01T17:45:10.149Z,2.40
2023-05-01T17:47:45.144Z,2.27
2023-05-01T17:50:14.811Z,2.27
2023-05-01T17:52:44.250Z,2.20
2023-05-01T17:55:13.636Z,1.77
2023-05-01T17:57:42.054Z,2.30
2023-05-01T18:00:13.363Z,2.40
2023-05-01T18:02:44.648Z,1.97
2023-05-01T18:05:12.799Z,2.17
2023-05-01T18:07:41.699Z,2.30
2023-05-01T18:10:14.974Z,2.67
2023-05-01T18:12:45.851Z,2.50
2023-05-01T18:15:13.733Z,2.70
2023-05-01T18:17:44.278Z,2.87
2023-05-01T18:20:13.903Z,2.60
2023-05-01T18:22:44.347Z,2.13
2023-05-01T18:25:11.974Z,2.53
2023-05-01T18:27:41.671Z,3.40
2023-05-01T18:30:14.096Z,3.23
2023-05-01T18:32:47.724Z,3.63
2023-05-01T18:35:20.699Z,3.97
2023-05-01T18:37:47.931Z,4.03
2023-05-01T18:40:17.794Z,3.93
2023-05-01T18:42:44.976Z,4.20
2023-05-01T18:45:12.842Z,3.50
2023-05-01T18:47:42.289Z,3.00
2023-05-01T18:50:10.517Z,3.23
2023-05-01T18:52:37.696Z,4.00
2023-05-01T18:55:05.625Z,4.17
2023-05-01T18:57:32.660Z,3.60
2023-05-01T19:00:04.670Z,4.33
2023-05-01T19:02:32.169Z,3.73
2023-05-01T19:05:01.817Z,4.30
2023-05-01T19:07:34.429Z,3.47
2023-05-01T19:10:04.705Z,4.10
2023-05-01T19:12:32.533Z,4.03
2023-05-01T19:15:00.239Z,3.40
2023-05-01T19:17:27.871Z,3.63
2023-05-01T19:19:55.336Z,3.67
2023-05-01T19:22:22.390Z,4.37
2023-05-01T19:24:51.949Z,3.60
2023-05-01T19:27:19.948Z,4.30
2023-05-01T19:29:50.465Z,4.03
2023-05-01T19:32:18.169Z,3.90
2023-05-01T19:34:47.757Z,4.00
2023-05-01T19:37:17.492Z,3.80
2023-05-01T19:39:46.352Z,4.43
2023-05-01T19:42:14.628Z,3.90
2023-05-01T19:44:42.728Z,4.10
2023-05-01T19:47:10.456Z,4.53
2023-05-01T19:49:38.859Z,4.30
2023-05-01T19:52:06.780Z,3.73
2023-05-01T19:54:34.182Z,4.00
2023-05-01T19:57:03.375Z,4.40
2023-05-01T19:59:31.289Z,3.97
2023-05-01T20:02:00.519Z,3.83
2023-05-01T20:04:33.384Z,3.23
2023-05-01T20:07:02.992Z,3.47
2023-05-01T20:09:30.908Z,3.40
2023-05-01T20:11:58.183Z,3.23
2023-05-01T20:14:25.412Z,3.47
2023-05-01T20:16:57.113Z,3.80
2023-05-01T20:19:24.527Z,3.70
2023-05-01T20:21:54.526Z,3.50
2023-05-01T20:24:25.161Z,3.53
2023-05-01T20:26:55.914Z,4.33
2023-05-01T20:29:23.892Z,3.73
2023-05-01T20:31:54.821Z,3.20
2023-05-01T20:34:25.215Z,3.27
2023-05-01T20:36:54.775Z,2.93
2023-05-01T20:39:22.059Z,2.80
2023-05-01T20:41:52.586Z,2.93
2023-05-01T20:44:24.526Z,3.00
2023-05-01T20:46:54.079Z,4.03
2023-05-01T20:49:24.110Z,2.47
2023-05-01T20:51:51.798Z,2.80
2023-05-01T20:54:22.083Z,2.90
2023-05-01T20:56:49.623Z,2.53
2023-05-01T20:59:20.209Z,3.13
2023-05-01T21:01:47.947Z,2.60
2023-05-01T21:04:16.710Z,2.30
2023-05-01T21:06:44.078Z,2.10
2023-05-01T21:09:15.064Z,3.40
2023-05-01T21:11:47.239Z,2.77
2023-05-01T21:14:17.898Z,2.70
2023-05-01T21:16:48.574Z,2.80
2023-05-01T21:19:18.060Z,2.87
2023-05-01T21:21:49.043Z,2.70
2023-05-01T21:24:26.268Z,2.93
2023-05-01T21:27:20.558Z,3.20
2023-05-01T21:30:01.705Z,3.03
2023-05-01T21:32:35.407Z,3.30
2023-05-01T21:35:03.840Z,3.07
2023-05-01T21:37:33.062Z,2.93
2023-05-01T21:40:10.341Z,2.50
2023-05-01T21:42:39.607Z,3.00
2023-05-01T21:45:09.710Z,3.10
2023-05-01T21:47:45.485Z,2.97
2023-05-01T21:50:16.407Z,3.03
2023-05-01T21:52:50.573Z,3.47
2023-05-01T21:55:26.532Z,3.20
2023-05-01T21:57:58.228Z,3.13
2023-05-01T22:00:25.842Z,3.17
2023-05-01T22:02:54.404Z,3.30
2023-05-01T22:05:23.056Z,3.30
2023-05-01T22:07:54.616Z,3.33
2023-05-01T22:10:22.203Z,3.40
2023-05-01T22:12:50.347Z,3.50
2023-05-01T22:15:20.069Z,3.20
2023-05-01T22:17:50.901Z,3.13
2023-05-01T22:20:18.806Z,3.77
2023-05-01T22:22:46.169Z,3.43
2023-05-01T22:25:13.477Z,3.60
2023-05-01T22:27:43.151Z,3.50
2023-05-01T22:30:11.369Z,3.43
2023-05-01T22:32:41.235Z,3.50
2023-05-01T22:35:09.178Z,2.87
2023-05-01T22:37:39.015Z,3.80
2023-05-01T22:40:10.009Z,4.03
2023-05-01T22:42:42.927Z,2.97
2023-05-01T22:45:10.443Z,3.10
2023-05-01T22:47:39.892Z,3.40
2023-05-01T22:50:07.742Z,3.10
2023-05-01T22:52:35.003Z,3.80
2023-05-01T22:55:02.621Z,3.50
2023-05-01T22:57:31.758Z,3.30
2023-05-01T22:59:59.754Z,3.53
2023-05-01T23:02:27.419Z,3.30
2023-05-01T23:04:55.078Z,3.47
2023-05-01T23:07:22.513Z,3.20
2023-05-01T23:09:50.319Z,3.50
2023-05-01T23:12:23.318Z,3.90
2023-05-01T23:14:53.975Z,3.10
2023-05-01T23:17:22.127Z,2.93
2023-05-01T23:19:54.993Z,3.90
2023-05-01T23:22:25.502Z,2.80
2023-05-01T23:24:52.845Z,3.07
2023-05-01T23:27:22.351Z,3.00
2023-05-01T23:29:58.750Z,3.63
2023-05-01T23:32:30.172Z,3.40
2023-05-01T23:35:18.992Z,3.57
2023-05-01T23:37:46.281Z,3.97
2023-05-01T23:40:15.668Z,3.43
2023-05-01T23:42:43.298Z,3.47
2023-05-01T23:45:10.553Z,3.50
2023-05-01T23:47:39.130Z,2.90
2023-05-01T23:50:07.594Z,3.10
2023-05-01T23:52:35.186Z,3.40
2023-05-01T23:55:05.647Z,3.30
2023-05-01T23:57:35.359Z,3.70
